createdAt,value
2023-04-02T00:01:39.902Z,96586.61
2023-04-02T00:04:22.887Z,96588.80
2023-04-02T00:07:31.343Z,96589.55
2023-04-02T00:10:49.622Z,96585.67
2023-04-02T00:13:45.175Z,96587.89
2023-04-02T00:16:22.901Z,96584.70
2023-04-02T00:18:58.735Z,96585.98
2023-04-02T00:21:35.091Z,96587.48
2023-04-02T00:24:17.602Z,96589.71
2023-04-02T00:26:51.690Z,96588.36
2023-04-02T00:29:24.296Z,96586.69
2023-04-02T00:31:55.978Z,96590.48
2023-04-02T00:34:48.014Z,96590.63
2023-04-02T00:37:24.236Z,96593.77
2023-04-02T00:40:10.413Z,96588.91
2023-04-02T00:42:49.058Z,96592.97
2023-04-02T00:45:51.331Z,96590.57
2023-04-02T00:48:58.394Z,96591.88
2023-04-02T00:51:37.218Z,96593.63
2023-04-02T00:54:17.146Z,96595.70
2023-04-02T00:56:49.280Z,96594.56
2023-04-02T00:59:35.961Z,96597.46
2023-04-02T01:02:22.878Z,96599.48
2023-04-02T01:05:02.850Z,96603.39
2023-04-02T01:07:53.973Z,96602.21
2023-04-02T01:10:48.141Z,96603.78
2023-04-02T01:13:37.753Z,96600.13
2023-04-02T01:16:23.514Z,96602.15
2023-04-02T01:19:32.497Z,96602.95
2023-04-02T01:22:20.723Z,96607.01
2023-04-02T01:24:50.420Z,96613.60
2023-04-02T01:27:47.421Z,96613.91
2023-04-02T01:30:18.653Z,96614.23
2023-04-02T01:32:51.212Z,96614.27
2023-04-02T01:35:24.445Z,96619.33
2023-04-02T01:38:21.886Z,96623.83
2023-04-02T01:41:09.863Z,96621.98
2023-04-02T01:44:02.382Z,96622.98
2023-04-02T01:46:53.945Z,96625.05
2023-04-02T01:49:25.870Z,96626.52
2023-04-02T01:51:57.580Z,96627.04
2023-04-02T01:54:30.598Z,96628.06
2023-04-02T01:57:00.648Z,96621.74
2023-04-02T01:59:33.682Z,96624.95
2023-04-02T02:02:08.422Z,96628.33
2023-04-02T02:04:41.654Z,96629.97
2023-04-02T02:07:19.070Z,96632.73
2023-04-02T02:09:52.303Z,96631.80
2023-04-02T02:12:23.231Z,96632.29
2023-04-02T02:14:54.321Z,96634.34
2023-04-02T02:17:35.199Z,96630.79
2023-04-02T02:20:11.394Z,96632.41
2023-04-02T02:22:50.865Z,96635.13
2023-04-02T02:25:24.746Z,96637.28
2023-04-02T02:28:14.288Z,96638.34
2023-04-02T02:31:08.306Z,96640.79
2023-04-02T02:33:52.145Z,96637.73
2023-04-02T02:36:51.542Z,96637.00
2023-04-02T02:39:25.313Z,96641.27
2023-04-02T02:42:03.446Z,96640.02
2023-04-02T02:44:40.132Z,96643.73
2023-04-02T02:47:20.302Z,96646.91
2023-04-02T02:49:58.285Z,96648.33
2023-04-02T02:52:38.537Z,96648.14
2023-04-02T02:55:23.032Z,96648.84
2023-04-02T02:58:23.949Z,96647.86
2023-04-02T03:01:06.752Z,96649.71
2023-04-02T03:03:38.196Z,96649.89
2023-04-02T03:06:17.201Z,96653.54
2023-04-02T03:09:41.575Z,96656.23
2023-04-02T03:12:28.558Z,96659.84
2023-04-02T03:15:10.809Z,96663.45
2023-04-02T03:18:13.457Z,96664.86
2023-04-02T03:20:54.898Z,96665.05
2023-04-02T03:23:39.291Z,96666.94
2023-04-02T03:26:18.817Z,96667.42
2023-04-02T03:29:21.434Z,96672.44
2023-04-02T03:32:13.202Z,96675.48
2023-04-02T03:35:06.950Z,96676.34
2023-04-02T03:37:48.375Z,96685.24
2023-04-02T03:40:50.292Z,96686.77
2023-04-02T03:43:25.665Z,96689.34
2023-04-02T03:46:14.224Z,96690.58
2023-04-02T03:48:48.914Z,96695.02
2023-04-02T03:51:34.204Z,96693.27
2023-04-02T03:54:06.085Z,96699.94
2023-04-02T03:56:41.925Z,96699.72
2023-04-02T03:59:54.543Z,96705.41
2023-04-02T04:02:48.770Z,96703.84
2023-04-02T04:05:47.003Z,96705.13
2023-04-02T04:08:23.190Z,96707.23
2023-04-02T04:11:02.426Z,96708.60
2023-04-02T04:13:54.826Z,96708.56
2023-04-02T04:17:14.308Z,96711.70
2023-04-02T04:19:50.014Z,96717.04
2023-04-02T04:22:33.422Z,96717.46
2023-04-02T04:25:40.570Z,96719.15
2023-04-02T04:28:31.293Z,96725.52
2023-04-02T04:31:18.329Z,96724.98
2023-04-02T04:34:15.203Z,96727.88
2023-04-02T04:36:54.815Z,96729.56
2023-04-02T04:39:41.993Z,96728.95
2023-04-02T04:42:23.852Z,96728.66
2023-04-02T04:45:20.521Z,96732.19
2023-04-02T04:48:27.399Z,96733.32
2023-04-02T04:51:25.390Z,96738.98
2023-04-02T04:53:56.580Z,96740.16
2023-04-02T04:56:31.612Z,96742.52
2023-04-02T04:59:25.403Z,96746.83
2023-04-02T05:02:08.497Z,96750.84
2023-04-02T05:04:49.495Z,96753.33
2023-04-02T05:07:45.043Z,96755.80
2023-04-02T05:10:28.945Z,96760.22
2023-04-02T05:13:15.476Z,96761.23
2023-04-02T05:16:13.396Z,96763.80
2023-04-02T05:19:08.622Z,96762.86
2023-04-02T05:22:16.713Z,96766.83
2023-04-02T05:25:17.241Z,96771.02
2023-04-02T05:27:59.557Z,96776.23
2023-04-02T05:30:29.469Z,96774.90
2023-04-02T05:33:08.499Z,96774.84
2023-04-02T05:35:45.749Z,96778.85
2023-04-02T05:38:29.713Z,96782.64
2023-04-02T05:41:16.215Z,96781.81
2023-04-02T05:43:57.192Z,96783.77
2023-04-02T05:46:37.591Z,96781.77
2023-04-02T05:49:17.223Z,96784.48
2023-04-02T05:51:53.030Z,96788.05
2023-04-02T05:54:31.774Z,96791.24
2023-04-02T05:57:08.148Z,96792.59
2023-04-02T06:00:00.664Z,96792.13
2023-04-02T06:02:55.446Z,96797.91
2023-04-02T06:05:34.125Z,96800.25
2023-04-02T06:08:12.255Z,96802.77
2023-04-02T06:11:01.583Z,96806.20
2023-04-02T06:13:32.643Z,96808.67
2023-04-02T06:16:04.253Z,96808.73
2023-04-02T06:18:37.302Z,96813.17
2023-04-02T06:21:07.452Z,96811.24
2023-04-02T06:23:57.422Z,96813.98
2023-04-02T06:26:37.490Z,96816.50
2023-04-02T06:29:40.865Z,96814.02
2023-04-02T06:32:15.359Z,96819.94
2023-04-02T06:34:47.002Z,96823.16
2023-04-02T06:37:37.523Z,96823.06
2023-04-02T06:41:07.762Z,96824.05
2023-04-02T06:43:52.956Z,96822.21
2023-04-02T06:46:54.078Z,96819.09
2023-04-02T06:49:35.757Z,96821.61
2023-04-02T06:52:30.334Z,96823.08
2023-04-02T06:55:00.318Z,96822.16
2023-04-02T06:57:49.842Z,96824.52
2023-04-02T07:00:31.374Z,96829.73
2023-04-02T07:03:07.486Z,96827.42
2023-04-02T07:05:47.771Z,96829.57
2023-04-02T07:08:36.995Z,96827.77
2023-04-02T07:11:07.582Z,96828.68
2023-04-02T07:13:37.599Z,96835.40
2023-04-02T07:16:18.023Z,96834.16
2023-04-02T07:18:49.484Z,96838.23
2023-04-02T07:21:20.235Z,96840.41
2023-04-02T07:23:50.036Z,96840.97
2023-04-02T07:26:25.861Z,96843.48
2023-04-02T07:28:56.797Z,96844.61
2023-04-02T07:31:28.846Z,96853.42
2023-04-02T07:34:00.850Z,96857.36
2023-04-02T07:36:31.132Z,96857.84
2023-04-02T07:39:01.432Z,96854.65
2023-04-02T07:41:31.733Z,96857.88
2023-04-02T07:44:02.038Z,96860.98
2023-04-02T07:46:31.396Z,96860.66
2023-04-02T07:49:01.042Z,96861.48
2023-04-02T07:51:30.867Z,96863.48
2023-04-02T07:54:02.293Z,96858.21
2023-04-02T07:56:32.823Z,96860.84
2023-04-02T07:59:05.003Z,96859.10
2023-04-02T08:01:35.813Z,96863.02
2023-04-02T08:04:08.472Z,96859.19
2023-04-02T08:06:37.529Z,96857.48
2023-04-02T08:09:18.238Z,96862.86
2023-04-02T08:11:48.629Z,96864.85
2023-04-02T08:14:17.970Z,96863.08
2023-04-02T08:16:56.640Z,96866.22
2023-04-02T08:19:26.168Z,96863.84
2023-04-02T08:21:56.985Z,96869.59
2023-04-02T08:24:26.160Z,96869.45
2023-04-02T08:26:56.204Z,96869.83
2023-04-02T08:29:25.925Z,96869.35
2023-04-02T08:31:57.158Z,96866.76
2023-04-02T08:34:27.576Z,96875.80
2023-04-02T08:36:59.322Z,96876.09
2023-04-02T08:39:33.454Z,96876.55
2023-04-02T08:42:24.443Z,96877.88
2023-04-02T08:45:31.752Z,96881.42
2023-04-02T08:48:04.274Z,96882.95
2023-04-02T08:50:37.962Z,96883.98
2023-04-02T08:53:27.292Z,96887.64
2023-04-02T08:56:08.864Z,96886.27
2023-04-02T08:58:49.978Z,96888.90
2023-04-02T09:02:02.236Z,96885.45
2023-04-02T09:04:34.196Z,96889.02
2023-04-02T09:07:04.693Z,96892.68
2023-04-02T09:09:38.705Z,96893.34
2023-04-02T09:12:21.410Z,96897.66
2023-04-02T09:15:19.088Z,96896.96
2023-04-02T09:17:54.402Z,96895.61
2023-04-02T09:20:30.301Z,96898.58
2023-04-02T09:23:00.315Z,96895.89
2023-04-02T09:25:32.712Z,96893.67
2023-04-02T09:28:06.384Z,96899.27
2023-04-02T09:31:14.807Z,96902.63
2023-04-02T09:33:50.385Z,96903.04
2023-04-02T09:36:40.510Z,96902.58
2023-04-02T09:39:21.600Z,96906.91
2023-04-02T09:42:02.890Z,96906.61
2023-04-02T09:44:37.140Z,96905.73
2023-04-02T09:47:24.540Z,96904.63
2023-04-02T09:49:54.061Z,96907.41
2023-04-02T09:52:32.440Z,96905.74
2023-04-02T09:55:20.685Z,96906.48
2023-04-02T09:57:52.506Z,96909.17
2023-04-02T10:00:32.142Z,96908.14
2023-04-02T10:03:11.149Z,96907.70
2023-04-02T10:05:43.532Z,96910.20
2023-04-02T10:08:30.246Z,96908.34
2023-04-02T10:11:03.549Z,96909.88
2023-04-02T10:13:57.482Z,96909.16
2023-04-02T10:16:41.047Z,96909.91
2023-04-02T10:19:33.052Z,96914.14
2023-04-02T10:22:16.187Z,96912.44
2023-04-02T10:24:47.248Z,96910.19
2023-04-02T10:27:23.395Z,96912.63
2023-04-02T10:30:11.721Z,96915.83
2023-04-02T10:32:56.613Z,96912.34
2023-04-02T10:35:32.223Z,96914.56
2023-04-02T10:38:14.442Z,96911.46
2023-04-02T10:40:59.893Z,96911.40
2023-04-02T10:43:36.807Z,96912.73
2023-04-02T10:46:18.555Z,96912.95
2023-04-02T10:49:21.727Z,96912.70
2023-04-02T10:52:08.131Z,96914.06
2023-04-02T10:54:53.379Z,96914.02
2023-04-02T10:57:58.009Z,96914.71
2023-04-02T11:00:40.496Z,96914.16
2023-04-02T11:03:24.205Z,96921.73
2023-04-02T11:06:01.851Z,96916.59
2023-04-02T11:08:44.811Z,96918.34
2023-04-02T11:11:28.138Z,96917.38
2023-04-02T11:14:18.174Z,96917.77
2023-04-02T11:16:51.645Z,96916.89
2023-04-02T11:19:29.522Z,96914.98
2023-04-02T11:22:03.168Z,96916.74
2023-04-02T11:24:45.349Z,96916.05
2023-04-02T11:27:36.523Z,96913.95
2023-04-02T11:30:27.761Z,96915.92
2023-04-02T11:33:42.239Z,96915.42
2023-04-02T11:36:54.553Z,96920.66
2023-04-02T11:39:57.466Z,96921.17
2023-04-02T11:42:31.648Z,96922.57
2023-04-02T11:45:29.013Z,96924.05
2023-04-02T11:48:04.469Z,96927.73
2023-04-02T11:50:44.121Z,96927.29
2023-04-02T11:53:16.273Z,96931.59
2023-04-02T11:56:18.655Z,96932.20
2023-04-02T11:58:48.280Z,96937.98
2023-04-02T12:01:40.690Z,96936.05
2023-04-02T12:04:28.855Z,96942.68
2023-04-02T12:07:11.138Z,96938.33
2023-04-02T12:09:54.310Z,96938.46
2023-04-02T12:12:44.478Z,96937.56
2023-04-02T12:15:44.722Z,96940.11
2023-04-02T12:18:18.902Z,96939.04
2023-04-02T12:20:57.605Z,96940.42
2023-04-02T12:23:33.773Z,96936.48
2023-04-02T12:26:09.555Z,96936.13
2023-04-02T12:28:39.737Z,96942.80
2023-04-02T12:31:09.293Z,96937.87
2023-04-02T12:33:43.654Z,96934.32
2023-04-02T12:36:16.434Z,96941.20
2023-04-02T12:39:04.072Z,96941.67
2023-04-02T12:41:37.590Z,96940.02
2023-04-02T12:44:19.155Z,96937.73
2023-04-02T12:46:51.845Z,96940.83
2023-04-02T12:49:31.162Z,96936.48
2023-04-02T12:52:04.606Z,96936.27
2023-04-02T12:54:46.728Z,96941.16
2023-04-02T12:57:28.112Z,96942.87
2023-04-02T13:00:06.123Z,96937.72
2023-04-02T13:02:47.131Z,96939.48
2023-04-02T13:05:43.210Z,96939.07
2023-04-02T13:08:41.844Z,96936.02
2023-04-02T13:11:12.476Z,96935.77
2023-04-02T13:13:46.523Z,96934.48
2023-04-02T13:16:15.814Z,96941.23
2023-04-02T13:18:48.088Z,96939.73
2023-04-02T13:21:19.568Z,96938.85
2023-04-02T13:23:49.945Z,96941.16
2023-04-02T13:26:24.826Z,96942.88
2023-04-02T13:29:05.157Z,96945.41
2023-04-02T13:31:37.433Z,96946.38
2023-04-02T13:34:07.471Z,96950.21
2023-04-02T13:36:38.135Z,96950.94
2023-04-02T13:39:08.566Z,96950.86
2023-04-02T13:41:45.734Z,96949.46
2023-04-02T13:44:28.681Z,96951.36
2023-04-02T13:47:01.534Z,96950.73
2023-04-02T13:49:32.695Z,96950.13
2023-04-02T13:52:04.806Z,96946.80
2023-04-02T13:54:42.893Z,96950.56
2023-04-02T13:57:14.996Z,96947.30
2023-04-02T13:59:44.736Z,96953.41
2023-04-02T14:02:23.311Z,96952.37
2023-04-02T14:05:05.760Z,96952.50
2023-04-02T14:08:05.300Z,96951.72
2023-04-02T14:10:52.565Z,96952.44
2023-04-02T14:13:46.763Z,96952.66
2023-04-02T14:16:53.583Z,96955.39
2023-04-02T14:19:46.634Z,96953.58
2023-04-02T14:22:43.254Z,96956.92
2023-04-02T14:25:33.428Z,96956.48
2023-04-02T14:28:28.014Z,96953.48
2023-04-02T14:31:21.571Z,96955.50
2023-04-02T14:34:23.384Z,96960.09
2023-04-02T14:36:59.457Z,96955.45
2023-04-02T14:39:51.079Z,96954.98
2023-04-02T14:42:27.569Z,96954.43
2023-04-02T14:45:18.631Z,96958.70
2023-04-02T14:47:55.326Z,96951.40
2023-04-02T14:50:42.545Z,96953.00
2023-04-02T14:53:44.193Z,96955.89
2023-04-02T14:56:15.532Z,96955.34
2023-04-02T14:58:52.448Z,96953.14
2023-04-02T15:01:29.365Z,96952.11
2023-04-02T15:04:05.877Z,96955.66
2023-04-02T15:06:43.658Z,96955.41
2023-04-02T15:09:37.152Z,96960.48
2023-04-02T15:12:31.470Z,96960.42
2023-04-02T15:15:40.515Z,96963.98
2023-04-02T15:18:15.640Z,96962.08
2023-04-02T15:21:03.828Z,96966.02
2023-04-02T15:24:04.701Z,96962.76
2023-04-02T15:26:47.584Z,96957.61
2023-04-02T15:29:42.236Z,96956.69
2023-04-02T15:32:34.487Z,96956.09
2023-04-02T15:35:06.184Z,96962.06
2023-04-02T15:38:16.867Z,96962.26
2023-04-02T15:41:15.088Z,96970.79
2023-04-02T15:44:06.867Z,96980.46
2023-04-02T15:47:06.873Z,96984.36
2023-04-02T15:49:51.856Z,96985.27
2023-04-02T15:52:46.213Z,96987.02
2023-04-02T15:55:37.333Z,96995.44
2023-04-02T15:58:25.230Z,96994.20
2023-04-02T16:01:19.093Z,96998.30
2023-04-02T16:03:56.797Z,97008.19
2023-04-02T16:06:32.847Z,97010.25
2023-04-02T16:09:31.318Z,97015.98
2023-04-02T16:12:18.262Z,97019.00
2023-04-02T16:14:50.877Z,97019.98
2023-04-02T16:17:39.662Z,97021.16
2023-04-02T16:20:33.545Z,97021.16
2023-04-02T16:23:15.168Z,97028.04
2023-04-02T16:26:31.567Z,97028.89
2023-04-02T16:29:21.628Z,97026.77
2023-04-02T16:32:03.640Z,97031.10
2023-04-02T16:34:48.715Z,97028.81
2023-04-02T16:37:46.949Z,97037.46
2023-04-02T16:41:07.900Z,97044.89
2023-04-02T16:43:57.898Z,97045.11
2023-04-02T16:46:59.735Z,97047.23
2023-04-02T16:49:53.683Z,97050.06
2023-04-02T16:52:34.776Z,97052.42
2023-04-02T16:55:39.287Z,97054.38
2023-04-02T16:58:30.074Z,97063.82
2023-04-02T17:01:37.682Z,97069.10
2023-04-02T17:04:33.372Z,97075.27
2023-04-02T17:07:11.948Z,97076.11
2023-04-02T17:10:04.575Z,97082.31
2023-04-02T17:12:41.230Z,97084.31
2023-04-02T17:15:28.557Z,97090.73
2023-04-02T17:18:01.024Z,97088.67
2023-04-02T17:20:32.913Z,97092.98
2023-04-02T17:23:05.681Z,97092.88
2023-04-02T17:25:40.678Z,97091.34
2023-04-02T17:28:16.153Z,97091.68
2023-04-02T17:30:51.482Z,97091.91
2023-04-02T17:33:25.329Z,97094.54
2023-04-02T17:36:22.761Z,97099.66
2023-04-02T17:39:10.646Z,97103.79
2023-04-02T17:42:17.330Z,97103.30
2023-04-02T17:45:10.816Z,97114.34
2023-04-02T17:48:19.654Z,97110.15
2023-04-02T17:51:01.521Z,97113.02
2023-04-02T17:54:02.603Z,97114.13
2023-04-02T17:56:32.796Z,97121.20
2023-04-02T17:59:07.527Z,97120.20
2023-04-02T18:01:55.442Z,97121.50
2023-04-02T18:04:42.901Z,97127.36
2023-04-02T18:07:26.466Z,97129.88
2023-04-02T18:10:08.811Z,97129.98
2023-04-02T18:13:09.365Z,97132.94
2023-04-02T18:15:59.370Z,97135.23
2023-04-02T18:19:00.360Z,97135.15
2023-04-02T18:22:08.814Z,97140.66
2023-04-02T18:24:54.758Z,97142.05
2023-04-02T18:27:53.978Z,97144.02
2023-04-02T18:30:24.067Z,97144.87
2023-04-02T18:32:56.733Z,97147.39
2023-04-02T18:35:37.031Z,97152.38
2023-04-02T18:38:48.233Z,97155.50
2023-04-02T18:41:35.996Z,97158.17
2023-04-02T18:44:55.277Z,97156.63
2023-04-02T18:48:05.099Z,97166.23
2023-04-02T18:50:39.472Z,97167.74
2023-04-02T18:53:17.876Z,97171.54
2023-04-02T18:55:55.895Z,97170.64
2023-04-02T18:58:36.081Z,97172.63
2023-04-02T19:01:09.512Z,97176.33
2023-04-02T19:03:45.911Z,97177.40
2023-04-02T19:06:27.864Z,97182.85
2023-04-02T19:09:13.291Z,97180.70
2023-04-02T19:11:43.447Z,97182.02
2023-04-02T19:14:19.302Z,97178.52
2023-04-02T19:17:05.304Z,97180.23
2023-04-02T19:20:02.283Z,97183.69
2023-04-02T19:23:10.103Z,97183.02
2023-04-02T19:26:07.347Z,97189.86
2023-04-02T19:28:55.142Z,97194.55
2023-04-02T19:32:14.357Z,97193.52
2023-04-02T19:35:13.359Z,97193.96
2023-04-02T19:38:19.249Z,97199.60
2023-04-02T19:41:13.400Z,97205.33
2023-04-02T19:43:43.783Z,97210.40
2023-04-02T19:46:15.583Z,97218.91
2023-04-02T19:49:17.539Z,97227.65
2023-04-02T19:51:49.111Z,97232.58
2023-04-02T19:54:19.287Z,97231.91
2023-04-02T19:56:55.250Z,97232.92
2023-04-02T19:59:24.430Z,97233.41
2023-04-02T20:01:54.466Z,97236.77
2023-04-02T20:04:24.067Z,97238.34
2023-04-02T20:06:54.854Z,97240.61
2023-04-02T20:09:25.142Z,97242.00
2023-04-02T20:11:54.570Z,97239.02
2023-04-02T20:14:24.659Z,97239.41
2023-04-02T20:16:54.890Z,97244.20
2023-04-02T20:19:25.828Z,97253.77
2023-04-02T20:21:55.315Z,97253.13
2023-04-02T20:24:25.227Z,97247.73
2023-04-02T20:26:55.296Z,97248.35
2023-04-02T20:29:28.485Z,97251.96
2023-04-02T20:31:57.931Z,97253.47
2023-04-02T20:34:30.346Z,97249.05
2023-04-02T20:37:00.345Z,97252.42
2023-04-02T20:39:30.703Z,97252.59
2023-04-02T20:42:03.301Z,97249.84
2023-04-02T20:44:35.928Z,97250.77
2023-04-02T20:47:07.766Z,97250.67
2023-04-02T20:49:39.426Z,97248.52
2023-04-02T20:52:09.609Z,97248.45
2023-04-02T20:54:40.313Z,97246.37
2023-04-02T20:57:10.676Z,97246.73
2023-04-02T20:59:41.025Z,97252.09
2023-04-02T21:02:14.369Z,97251.64
2023-04-02T21:04:44.457Z,97254.41
2023-04-02T21:07:14.442Z,97252.83
2023-04-02T21:09:48.377Z,97252.92
2023-04-02T21:12:18.301Z,97252.80
2023-04-02T21:14:49.191Z,97257.77
2023-04-02T21:17:19.541Z,97257.14
2023-04-02T21:19:49.392Z,97259.54
2023-04-02T21:22:20.216Z,97256.20
2023-04-02T21:24:50.204Z,97254.81
2023-04-02T21:27:26.567Z,97250.52
2023-04-02T21:29:55.806Z,97251.20
2023-04-02T21:32:25.947Z,97250.72
2023-04-02T21:34:56.226Z,97254.11
2023-04-02T21:37:26.011Z,97254.17
2023-04-02T21:39:55.931Z,97250.04
2023-04-02T21:42:26.443Z,97253.05
2023-04-02T21:44:56.408Z,97250.00
2023-04-02T21:47:28.166Z,97247.90
2023-04-02T21:50:00.076Z,97252.69
2023-04-02T21:52:30.308Z,97254.82
2023-04-02T21:55:00.812Z,97252.83
2023-04-02T21:57:30.873Z,97252.73
2023-04-02T22:00:01.228Z,97258.16
2023-04-02T22:02:33.896Z,97256.02
2023-04-02T22:05:04.254Z,97253.98
2023-04-02T22:07:33.993Z,97258.92
2023-04-02T22:10:03.676Z,97261.20
2023-04-02T22:12:33.312Z,97261.31
2023-04-02T22:15:04.494Z,97259.77
2023-04-02T22:17:34.409Z,97256.80
2023-04-02T22:20:04.033Z,97254.00
2023-04-02T22:22:33.481Z,97257.81
2023-04-02T22:25:04.122Z,97261.95
2023-04-02T22:27:33.416Z,97261.48
2023-04-02T22:30:06.151Z,97259.16
2023-04-02T22:32:37.488Z,97260.21
2023-04-02T22:35:07.738Z,97264.98
2023-04-02T22:37:37.740Z,97266.17
2023-04-02T22:40:08.638Z,97266.98
2023-04-02T22:42:38.858Z,97270.20
2023-04-02T22:45:08.947Z,97269.14
2023-04-02T22:47:39.262Z,97271.36
2023-04-02T22:50:09.157Z,97270.23
2023-04-02T22:52:38.728Z,97267.99
2023-04-02T22:55:10.527Z,97269.51
2023-04-02T22:57:42.623Z,97267.45
2023-04-02T23:00:15.538Z,97272.94
2023-04-02T23:02:46.228Z,97273.61
2023-04-02T23:05:16.327Z,97278.49
2023-04-02T23:07:47.831Z,97277.64
2023-04-02T23:10:18.312Z,97282.73
2023-04-02T23:12:48.151Z,97288.23
2023-04-02T23:15:18.309Z,97287.25
2023-04-02T23:17:47.607Z,97290.27
2023-04-02T23:20:17.593Z,97290.10
2023-04-02T23:22:47.554Z,97289.33
2023-04-02T23:25:17.713Z,97289.25
2023-04-02T23:27:47.162Z,97292.27
2023-04-02T23:30:17.173Z,97290.74
2023-04-02T23:32:48.174Z,97286.29
2023-04-02T23:35:18.732Z,97286.03
2023-04-02T23:37:52.173Z,97285.38
2023-04-02T23:40:21.332Z,97288.70
2023-04-02T23:42:53.996Z,97289.92
2023-04-02T23:45:23.356Z,97295.67
2023-04-02T23:47:52.946Z,97294.94
2023-04-02T23:50:22.548Z,97297.84
2023-04-02T23:52:53.152Z,97298.03
2023-04-02T23:55:22.642Z,97296.96
2023-04-02T23:57:52.463Z,97296.16
